createdAt,value
2018-10-21T00:04:27.963Z,7.40
2018-10-21T00:09:23.045Z,7.30
2018-10-21T00:14:17.485Z,7.30
2018-10-21T00:19:10.896Z,7.20
2018-10-21T00:24:05.046Z,7.20
2018-10-21T00:28:58.485Z,7.10
2018-10-21T00:33:53.175Z,7.00
2018-10-21T00:38:46.535Z,6.90
2018-10-21T00:43:40.076Z,7.00
2018-10-21T00:48:34.733Z,7.00
2018-10-21T00:53:30.300Z,6.90
2018-10-21T00:58:26.499Z,6.90
2018-10-21T01:03:20.012Z,6.90
2018-10-21T01:08:13.366Z,6.80
2018-10-21T01:13:06.737Z,6.80
2018-10-21T01:18:00.055Z,6.80
2018-10-21T01:22:54.080Z,6.80
2018-10-21T01:27:50.216Z,6.80
2018-10-21T01:32:45.196Z,6.70
2018-10-21T01:37:38.644Z,6.70
2018-10-21T01:42:31.980Z,6.70
2018-10-21T01:47:25.898Z,6.70
2018-10-21T01:52:19.348Z,6.60
2018-10-21T01:57:12.808Z,6.60
2018-10-21T02:02:07.923Z,6.60
2018-10-21T02:07:01.260Z,6.60
2018-10-21T02:11:54.661Z,6.50
2018-10-21T02:16:48.024Z,6.50
2018-10-21T02:21:42.060Z,6.40
2018-10-21T02:26:36.164Z,6.40
2018-10-21T02:31:30.393Z,6.30
2018-10-21T02:36:23.909Z,6.30
2018-10-21T02:41:37.647Z,6.30
2018-10-21T02:46:32.132Z,6.30
2018-10-21T02:51:25.476Z,6.20
2018-10-21T02:56:19.454Z,6.10
2018-10-21T03:01:12.854Z,6.10
2018-10-21T03:06:07.388Z,6.10
2018-10-21T03:11:01.370Z,6.10
2018-10-21T03:15:55.231Z,6.10
2018-10-21T03:20:48.677Z,6.00
2018-10-21T03:25:43.172Z,5.90
2018-10-21T03:30:37.423Z,5.90
2018-10-21T03:35:30.874Z,5.90
2018-10-21T03:40:24.710Z,5.90
2018-10-21T03:45:18.738Z,5.80
2018-10-21T03:50:12.470Z,5.80
2018-10-21T03:55:06.118Z,5.80
2018-10-21T03:59:59.483Z,5.80
2018-10-21T04:04:52.820Z,5.80
2018-10-21T04:09:46.254Z,5.80
2018-10-21T04:14:39.564Z,5.70
2018-10-21T04:19:34.866Z,5.60
2018-10-21T04:24:28.169Z,5.60
2018-10-21T04:29:21.516Z,5.60
2018-10-21T04:34:14.920Z,5.50
2018-10-21T04:39:40.465Z,5.50
2018-10-21T04:44:34.835Z,5.40
2018-10-21T04:49:28.317Z,5.40
2018-10-21T04:54:22.386Z,5.30
2018-10-21T04:59:15.792Z,5.30
2018-10-21T05:04:09.253Z,5.30
2018-10-21T05:09:02.741Z,5.30
2018-10-21T05:13:56.746Z,5.20
2018-10-21T05:18:51.635Z,5.20
2018-10-21T05:23:45.061Z,5.20
2018-10-21T05:28:38.470Z,5.10
2018-10-21T05:33:32.786Z,5.10
2018-10-21T05:38:26.439Z,5.10
2018-10-21T05:43:19.784Z,5.10
2018-10-21T05:48:13.098Z,5.10
2018-10-21T05:53:06.485Z,5.10
2018-10-21T05:57:59.825Z,5.20
2018-10-21T06:02:54.028Z,5.20
2018-10-21T06:07:47.330Z,5.20
2018-10-21T06:12:41.248Z,5.30
2018-10-21T06:17:34.680Z,5.30
2018-10-21T06:22:36.064Z,5.30
2018-10-21T06:27:29.498Z,5.30
2018-10-21T06:32:22.913Z,5.30
2018-10-21T06:37:16.340Z,5.30
2018-10-21T06:42:09.749Z,5.40
2018-10-21T06:47:03.181Z,5.60
2018-10-21T06:51:58.735Z,5.70
2018-10-21T06:56:52.723Z,5.80
2018-10-21T07:01:45.977Z,5.90
2018-10-21T07:06:39.385Z,6.60
2018-10-21T07:11:37.009Z,7.90
2018-10-21T07:16:30.374Z,8.80
2018-10-21T07:21:23.828Z,9.40
2018-10-21T07:26:17.278Z,9.80
2018-10-21T07:31:10.679Z,9.80
2018-10-21T07:36:05.025Z,10.00
2018-10-21T07:40:59.371Z,10.00
2018-10-21T07:45:52.900Z,10.70
2018-10-21T07:50:46.255Z,10.90
2018-10-21T07:55:40.655Z,11.20
2018-10-21T08:00:36.041Z,11.20
2018-10-21T08:05:46.538Z,11.10
2018-10-21T08:10:40.251Z,12.00
2018-10-21T08:15:34.657Z,12.50
2018-10-21T08:20:28.022Z,12.50
2018-10-21T08:25:21.478Z,13.10
2018-10-21T08:30:15.888Z,13.40
2018-10-21T08:35:09.329Z,14.10
2018-10-21T08:40:03.381Z,13.60
2018-10-21T08:44:58.201Z,13.90
2018-10-21T08:49:52.747Z,13.70
2018-10-21T08:54:46.097Z,14.00
2018-10-21T08:59:40.156Z,14.40
2018-10-21T09:04:35.607Z,14.50
2018-10-21T09:09:28.979Z,14.60
2018-10-21T09:14:23.424Z,15.00
2018-10-21T09:19:16.806Z,14.90
2018-10-21T09:24:10.107Z,15.20
2018-10-21T09:29:03.521Z,14.70
2018-10-21T09:33:58.551Z,14.80
2018-10-21T09:38:52.571Z,14.30
2018-10-21T09:43:45.932Z,14.30
2018-10-21T09:48:39.281Z,14.70
2018-10-21T09:53:32.829Z,14.10
2018-10-21T09:58:26.700Z,13.50
2018-10-21T10:03:20.119Z,13.00
2018-10-21T10:08:13.641Z,13.00
2018-10-21T10:13:07.007Z,12.10
2018-10-21T10:18:00.364Z,13.60
2018-10-21T10:22:53.698Z,13.50
2018-10-21T10:27:47.087Z,13.70
2018-10-21T10:32:42.330Z,13.50
2018-10-21T10:37:35.652Z,13.70
2018-10-21T10:42:29.969Z,13.90
2018-10-21T10:47:23.411Z,14.20
2018-10-21T10:52:17.633Z,14.20
2018-10-21T10:57:10.934Z,14.40
2018-10-21T11:02:04.645Z,14.20
2018-10-21T11:06:58.385Z,14.40
2018-10-21T11:11:51.681Z,14.50
2018-10-21T11:16:45.093Z,14.60
2018-10-21T11:21:38.421Z,14.90
2018-10-21T11:26:31.871Z,15.20
2018-10-21T11:31:25.286Z,15.40
2018-10-21T11:36:18.667Z,15.50
2018-10-21T11:41:11.984Z,15.50
2018-10-21T11:46:05.589Z,15.40
2018-10-21T11:50:59.909Z,15.60
2018-10-21T11:55:53.962Z,15.50
2018-10-21T12:00:48.384Z,15.50
2018-10-21T12:05:42.411Z,15.80
2018-10-21T12:10:35.864Z,15.90
2018-10-21T12:15:29.922Z,16.00
2018-10-21T12:20:24.425Z,16.10
2018-10-21T12:25:17.921Z,15.90
2018-10-21T12:30:12.475Z,15.90
2018-10-21T12:35:09.102Z,16.20
2018-10-21T12:40:02.614Z,16.20
2018-10-21T12:44:55.946Z,16.20
2018-10-21T12:49:49.357Z,16.20
2018-10-21T12:54:43.399Z,16.00
2018-10-21T12:59:36.753Z,16.20
2018-10-21T13:04:30.072Z,16.40
2018-10-21T13:09:24.564Z,16.40
2018-10-21T13:14:20.005Z,16.50
2018-10-21T13:19:13.441Z,16.60
2018-10-21T13:24:06.886Z,16.40
2018-10-21T13:29:00.272Z,16.50
2018-10-21T13:33:53.618Z,16.30
2018-10-21T13:38:47.034Z,16.40
2018-10-21T13:43:41.117Z,16.40
2018-10-21T13:48:35.336Z,16.70
2018-10-21T13:53:30.465Z,16.50
2018-10-21T13:58:24.444Z,16.50
2018-10-21T14:03:18.787Z,16.40
2018-10-21T14:08:12.171Z,16.40
2018-10-21T14:13:06.284Z,16.50
2018-10-21T14:18:00.182Z,16.50
2018-10-21T14:22:53.592Z,16.40
2018-10-21T14:27:47.003Z,16.30
2018-10-21T14:32:41.171Z,16.30
2018-10-21T14:37:34.579Z,16.20
2018-10-21T14:42:27.946Z,16.20
2018-10-21T14:47:21.371Z,16.10
2018-10-21T14:52:14.759Z,16.10
2018-10-21T14:57:12.063Z,16.10
2018-10-21T15:02:06.541Z,16.10
2018-10-21T15:07:02.094Z,16.00
2018-10-21T15:11:56.126Z,15.90
2018-10-21T15:16:49.505Z,15.80
2018-10-21T15:21:42.883Z,15.80
2018-10-21T15:26:36.427Z,15.70
2018-10-21T15:31:29.796Z,15.70
2018-10-21T15:36:24.501Z,15.70
2018-10-21T15:41:18.837Z,15.60
2018-10-21T15:46:13.269Z,15.50
2018-10-21T15:51:06.649Z,15.50
2018-10-21T15:56:01.916Z,15.40
2018-10-21T16:00:56.150Z,15.30
2018-10-21T16:05:50.250Z,15.20
2018-10-21T16:10:43.577Z,15.00
2018-10-21T16:15:36.954Z,15.00
2018-10-21T16:20:30.355Z,14.80
2018-10-21T16:25:23.795Z,14.70
2018-10-21T16:30:19.946Z,14.40
2018-10-21T16:35:15.249Z,14.30
2018-10-21T16:40:15.150Z,14.10
2018-10-21T16:45:11.556Z,14.00
2018-10-21T16:50:08.827Z,13.80
2018-10-21T16:55:03.126Z,13.70
2018-10-21T16:59:56.645Z,13.80
2018-10-21T17:04:50.397Z,13.70
2018-10-21T17:09:46.495Z,13.70
2018-10-21T17:14:41.193Z,13.60
2018-10-21T17:19:36.805Z,13.50
2018-10-21T17:24:31.028Z,13.50
2018-10-21T17:29:24.429Z,13.40
2018-10-21T17:34:24.845Z,13.40
2018-10-21T17:39:27.521Z,13.20
2018-10-21T17:44:25.184Z,13.00
2018-10-21T17:49:28.145Z,13.00
2018-10-21T17:54:24.866Z,12.80
2018-10-21T17:59:20.801Z,12.70
2018-10-21T18:04:16.468Z,12.70
2018-10-21T18:09:12.272Z,12.60
2018-10-21T18:14:07.201Z,12.50
2018-10-21T18:19:03.202Z,12.30
2018-10-21T18:23:56.789Z,12.10
2018-10-21T18:28:51.603Z,12.00
2018-10-21T18:33:45.720Z,11.80
2018-10-21T18:38:41.030Z,11.70
2018-10-21T18:43:37.089Z,11.50
2018-10-21T18:48:31.998Z,11.40
2018-10-21T18:53:26.421Z,11.30
2018-10-21T18:58:21.402Z,11.30
2018-10-21T19:03:15.499Z,11.20
2018-10-21T19:08:09.063Z,11.10
2018-10-21T19:13:03.182Z,10.90
2018-10-21T19:17:56.609Z,10.70
2018-10-21T19:22:50.114Z,10.50
2018-10-21T19:27:45.156Z,10.50
2018-10-21T19:32:39.805Z,10.40
2018-10-21T19:37:33.151Z,10.40
2018-10-21T19:42:26.514Z,10.50
2018-10-21T19:47:22.329Z,10.50
2018-10-21T19:52:17.480Z,10.40
2018-10-21T19:57:13.976Z,10.40
2018-10-21T20:02:09.851Z,10.40
2018-10-21T20:07:05.024Z,10.40
2018-10-21T20:12:00.298Z,10.30
2018-10-21T20:16:54.754Z,10.30
2018-10-21T20:21:48.606Z,10.40
2018-10-21T20:26:43.035Z,10.30
2018-10-21T20:31:36.888Z,10.20
2018-10-21T20:36:30.916Z,10.10
2018-10-21T20:41:25.172Z,10.10
2018-10-21T20:46:18.678Z,10.10
2018-10-21T20:51:12.382Z,10.10
2018-10-21T20:56:06.408Z,10.10
2018-10-21T21:00:59.751Z,10.00
2018-10-21T21:05:53.104Z,10.00
2018-10-21T21:10:47.067Z,9.90
2018-10-21T21:15:42.779Z,9.80
2018-10-21T21:20:36.247Z,9.80
2018-10-21T21:25:30.113Z,9.60
2018-10-21T21:30:23.466Z,9.50
2018-10-21T21:35:18.077Z,9.50
2018-10-21T21:40:12.255Z,9.50
2018-10-21T21:45:06.325Z,9.30
2018-10-21T21:49:59.759Z,9.20
2018-10-21T21:54:53.572Z,9.10
2018-10-21T21:59:46.910Z,9.20
2018-10-21T22:04:41.361Z,9.10
2018-10-21T22:09:35.602Z,9.10
2018-10-21T22:14:28.941Z,8.90
2018-10-21T22:19:22.296Z,8.90
2018-10-21T22:24:15.700Z,8.90
2018-10-21T22:29:09.093Z,8.80
2018-10-21T22:34:02.475Z,8.80
2018-10-21T22:38:55.827Z,9.00
2018-10-21T22:43:49.172Z,9.00
2018-10-21T22:48:43.604Z,9.00
2018-10-21T22:53:37.022Z,8.80
2018-10-21T22:58:30.505Z,8.80
2018-10-21T23:03:26.161Z,8.90
2018-10-21T23:08:20.944Z,8.80
2018-10-21T23:13:15.023Z,8.80
2018-10-21T23:18:10.128Z,8.80
2018-10-21T23:23:05.565Z,8.70
2018-10-21T23:27:58.980Z,8.50
2018-10-21T23:32:52.427Z,8.40
2018-10-21T23:37:45.804Z,8.40
2018-10-21T23:42:40.569Z,8.40
2018-10-21T23:47:33.916Z,8.40
2018-10-21T23:52:30.364Z,8.40
2018-10-21T23:57:23.982Z,8.30
